Time;durP1;ratioP1;P1;durP2;ratioP2;P2;SDS_P1;SDS_P2;PMS_P1;PMS_P2;Temp;Humidity;BMP_temperature;BMP_pressure;BME280_temperature;BME280_humidity;BME280_pressure;Samples;Min_cycle;Max_cycle;Signal;HPM_P1;HPM_P2
2024/02/14 00:00:20;;;;;;;6.90;2.85;;;8.00;99.90;;;;;;5055216;28;20009;-77
2024/02/14 00:02:49;;;;;;;6.32;2.67;;;8.10;99.90;;;;;;5055875;28;20488;-78
2024/02/14 00:05:15;;;;;;;5.70;3.03;;;8.00;99.90;;;;;;5057774;28;20418;-78
2024/02/14 00:07:42;;;;;;;7.00;3.10;;;8.10;99.90;;;;;;5056598;28;20492;-78
2024/02/14 00:10:08;;;;;;;5.72;3.60;;;8.10;99.90;;;;;;5055662;28;20048;-78
2024/02/14 00:12:35;;;;;;;7.57;2.67;;;8.20;99.90;;;;;;5057064;28;20034;-78
2024/02/14 00:15:02;;;;;;;4.72;3.13;;;8.20;99.90;;;;;;5055207;28;20480;-79
2024/02/14 00:17:28;;;;;;;5.90;3.03;;;8.20;99.90;;;;;;5055504;28;20017;-79
2024/02/14 00:19:54;;;;;;;5.95;3.88;;;8.20;99.90;;;;;;5056677;28;20021;-79
2024/02/14 00:22:20;;;;;;;5.88;4.40;;;8.20;99.90;;;;;;5056373;28;20124;-79
2024/02/14 00:24:45;;;;;;;5.68;3.70;;;8.20;99.90;;;;;;5058236;28;20045;-79
2024/02/14 00:27:11;;;;;;;6.85;3.88;;;8.20;99.90;;;;;;5057037;28;20032;-79
2024/02/14 00:29:37;;;;;;;11.00;5.25;;;8.30;99.90;;;;;;5059547;28;20025;-79
2024/02/14 00:32:03;;;;;;;5.63;3.97;;;9.40;99.90;;;;;;5058797;28;20020;-80
2024/02/14 00:34:29;;;;;;;7.78;4.10;;;8.30;99.90;;;;;;5059041;28;20408;-80
2024/02/14 00:36:54;;;;;;;7.00;4.70;;;8.30;99.90;;;;;;5058044;28;20091;-80
2024/02/14 00:39:20;;;;;;;7.88;4.85;;;8.30;99.90;;;;;;5055546;28;20032;-80
2024/02/14 00:41:47;;;;;;;7.85;4.60;;;9.10;99.90;;;;;;5056913;28;20383;-79
2024/02/14 00:44:13;;;;;;;9.65;4.82;;;8.40;99.90;;;;;;5056339;28;20024;-79
2024/02/14 00:46:38;;;;;;;12.07;5.10;;;8.50;99.90;;;;;;5055234;28;20028;-78
2024/02/14 00:49:04;;;;;;;10.52;5.03;;;8.50;99.90;;;;;;5054982;28;20029;-80
2024/02/14 00:51:30;;;;;;;8.35;4.65;;;8.50;99.90;;;;;;5056097;28;20021;-79
2024/02/14 00:53:55;;;;;;;8.48;5.93;;;8.50;99.90;;;;;;5056383;28;20102;-79
2024/02/14 00:56:23;;;;;;;8.15;5.78;;;8.60;99.90;;;;;;5056606;28;20021;-79
2024/02/14 00:58:49;;;;;;;10.30;5.32;;;8.60;99.90;;;;;;5056334;28;20075;-79
2024/02/14 01:01:15;;;;;;;9.95;5.68;;;8.70;99.90;;;;;;5059063;28;20021;-79
2024/02/14 01:03:40;;;;;;;8.85;5.63;;;8.70;99.90;;;;;;5058454;28;20017;-80
2024/02/14 01:06:06;;;;;;;10.48;6.32;;;8.80;99.90;;;;;;5056939;28;20047;-80
2024/02/14 01:08:33;;;;;;;13.20;5.63;;;8.80;99.90;;;;;;5058550;28;20476;-80
2024/02/14 01:10:59;;;;;;;11.18;5.68;;;8.90;99.90;;;;;;5057061;28;20376;-79
2024/02/14 01:13:24;;;;;;;9.10;5.32;;;8.80;99.90;;;;;;5055682;28;20017;-78
2024/02/14 01:15:50;;;;;;;8.75;5.05;;;8.90;99.90;;;;;;5056340;28;20025;-79
2024/02/14 01:18:16;;;;;;;8.80;5.15;;;8.90;99.90;;;;;;5054093;28;20017;-79
2024/02/14 01:20:41;;;;;;;7.63;4.95;;;8.90;99.90;;;;;;5056840;28;20067;-79
2024/02/14 01:23:07;;;;;;;10.10;5.78;;;8.90;99.90;;;;;;5056493;28;20032;-81
2024/02/14 01:25:32;;;;;;;7.75;5.25;;;8.90;99.90;;;;;;5056564;28;20021;-79
2024/02/14 01:27:59;;;;;;;10.30;5.97;;;8.90;99.90;;;;;;5055745;28;20399;-79
2024/02/14 01:30:25;;;;;;;11.88;5.95;;;10.80;99.90;;;;;;5055550;28;20468;-80
2024/02/14 01:32:52;;;;;;;9.25;5.90;;;9.00;99.90;;;;;;5056741;28;20021;-80
2024/02/14 01:35:18;;;;;;;13.07;6.50;;;8.90;99.90;;;;;;5058686;28;20025;-80
2024/02/14 01:37:45;;;;;;;10.73;6.22;;;9.00;99.90;;;;;;5057317;28;20502;-79
2024/02/14 01:40:11;;;;;;;9.75;6.00;;;;;;;;;;5058902;28;20158;-80
2024/02/14 01:42:37;;;;;;;11.95;7.00;;;9.00;99.90;;;;;;5057670;28;20029;-79
2024/02/14 01:45:03;;;;;;;10.55;6.57;;;10.80;99.90;;;;;;5056577;28;20025;-80
2024/02/14 01:47:28;;;;;;;12.50;5.97;;;9.00;99.90;;;;;;5056834;28;20103;-79
2024/02/14 01:49:54;;;;;;;9.52;6.30;;;9.00;99.90;;;;;;5057405;28;20035;-80
2024/02/14 01:52:22;;;;;;;11.18;6.55;;;9.00;99.90;;;;;;5057661;28;20029;-80
2024/02/14 01:54:49;;;;;;;9.10;6.05;;;9.00;99.90;;;;;;5057131;28;20013;-80
2024/02/14 01:57:15;;;;;;;11.52;6.60;;;9.00;99.90;;;;;;5056410;28;20025;-80
2024/02/14 01:59:40;;;;;;;11.32;6.85;;;9.10;99.90;;;;;;5057116;28;20552;-80
2024/02/14 02:02:09;;;;;;;12.68;6.65;;;9.10;99.90;;;;;;5056562;28;20021;-80
2024/02/14 02:04:35;;;;;;;12.60;6.20;;;9.40;99.90;;;;;;5056609;28;20028;-80
2024/02/14 02:07:04;;;;;;;12.18;5.47;;;9.10;99.90;;;;;;5056695;28;20021;-80
2024/02/14 02:09:31;;;;;;;10.98;6.13;;;9.10;99.90;;;;;;5057609;28;20021;-77
2024/02/14 02:11:57;;;;;;;9.65;5.63;;;9.20;99.90;;;;;;5059561;28;20013;-78
2024/02/14 02:14:22;;;;;;;8.82;5.32;;;9.10;99.90;;;;;;5064376;28;20025;-77
2024/02/14 02:16:49;;;;;;;11.77;5.45;;;;;;;;;;5063495;28;20056;-78
2024/02/14 02:19:15;;;;;;;11.23;6.13;;;;;;;;;;5055822;28;20024;-78
2024/02/14 02:21:47;;;;;;;10.32;5.80;;;9.20;99.90;;;;;;5053842;28;20028;-78
2024/02/14 02:24:13;;;;;;;8.75;5.70;;;9.20;99.90;;;;;;5056457;28;20037;-78
2024/02/14 02:26:39;;;;;;;9.27;5.72;;;;;;;;;;5054822;28;20048;-78
2024/02/14 02:29:06;;;;;;;13.35;6.32;;;9.20;99.90;;;;;;5054963;28;20087;-77
2024/02/14 02:31:32;;;;;;;11.18;6.43;;;10.20;99.90;;;;;;5062396;28;20037;-78
2024/02/14 02:33:57;;;;;;;10.90;6.53;;;9.20;99.90;;;;;;5058185;28;20029;-76
2024/02/14 02:36:25;;;;;;;12.32;6.93;;;9.20;99.90;;;;;;5054693;28;20028;-77
2024/02/14 02:38:51;;;;;;;11.40;6.78;;;9.20;99.90;;;;;;5056446;28;20028;-78
2024/02/14 02:41:17;;;;;;;11.93;6.63;;;9.30;99.90;;;;;;5059443;28;20037;-78
2024/02/14 02:43:43;;;;;;;11.65;6.03;;;9.30;99.90;;;;;;5061720;28;20025;-78
2024/02/14 02:46:11;;;;;;;12.32;6.22;;;9.30;99.90;;;;;;5055567;28;20025;-78
2024/02/14 02:48:37;;;;;;;9.48;5.43;;;9.30;99.90;;;;;;5058347;28;20056;-78
2024/02/14 02:51:11;;;;;;;10.25;5.57;;;9.30;99.90;;;;;;5055379;28;20025;-78
2024/02/14 02:53:37;;;;;;;10.52;5.93;;;9.30;99.90;;;;;;5061396;28;20052;-79
2024/02/14 02:56:03;;;;;;;11.88;5.75;;;9.40;99.90;;;;;;5056207;28;20025;-80
2024/02/14 02:58:29;;;;;;;9.05;5.32;;;9.30;99.90;;;;;;5055867;28;20021;-80
2024/02/14 03:00:56;;;;;;;9.82;5.88;;;9.40;99.90;;;;;;5055960;28;20054;-78
2024/02/14 03:03:22;;;;;;;6.90;4.50;;;9.30;99.90;;;;;;5053941;28;20029;-80
2024/02/14 03:05:48;;;;;;;8.85;5.70;;;9.30;99.90;;;;;;5058351;28;20126;-78
2024/02/14 03:08:15;;;;;;;10.48;5.60;;;9.30;99.90;;;;;;5057648;28;20040;-80
2024/02/14 03:10:41;;;;;;;8.20;5.78;;;9.40;99.90;;;;;;5059031;28;20025;-80
2024/02/14 03:13:11;;;;;;;11.43;5.75;;;9.40;99.90;;;;;;5060033;28;20033;-80
2024/02/14 03:15:38;;;;;;;10.80;6.03;;;9.40;99.90;;;;;;5059086;28;20017;-79
2024/02/14 03:18:09;;;;;;;11.43;6.53;;;9.40;99.90;;;;;;5059347;28;20028;-79
2024/02/14 03:20:38;;;;;;;10.27;5.22;;;9.40;99.90;;;;;;5059436;28;20104;-79
2024/02/14 03:23:03;;;;;;;9.35;6.15;;;9.40;99.90;;;;;;5060479;28;20065;-79
2024/02/14 03:25:30;;;;;;;12.85;6.25;;;9.50;99.90;;;;;;5058559;28;20029;-79
2024/02/14 03:27:58;;;;;;;11.18;6.13;;;9.50;99.90;;;;;;5055940;28;20086;-79
2024/02/14 03:30:24;;;;;;;12.50;6.35;;;9.50;99.90;;;;;;5056377;28;20392;-79
2024/02/14 03:32:50;;;;;;;7.63;4.82;;;9.50;99.90;;;;;;5057680;28;20017;-78
2024/02/14 03:35:16;;;;;;;15.98;6.45;;;9.50;99.90;;;;;;5057241;28;20028;-79
2024/02/14 03:37:47;;;;;;;13.07;6.78;;;9.50;99.90;;;;;;5057213;28;20096;-79
2024/02/14 03:40:13;;;;;;;15.63;5.95;;;9.50;99.90;;;;;;5056379;28;20083;-79
2024/02/14 03:42:41;;;;;;;20.05;7.07;;;9.50;99.90;;;;;;5060486;28;20033;-83
2024/02/14 03:45:08;;;;;;;15.45;7.30;;;9.50;99.90;;;;;;5062811;28;20081;-82
2024/02/14 03:47:34;;;;;;;14.75;4.82;;;9.50;99.90;;;;;;5061592;28;20029;-82
2024/02/14 03:50:04;;;;;;;13.00;6.55;;;9.60;99.90;;;;;;5061701;28;20029;-82
2024/02/14 03:52:32;;;;;;;18.83;7.25;;;9.60;99.90;;;;;;5061549;28;20025;-82
2024/02/14 03:54:59;;;;;;;17.90;6.10;;;9.60;99.90;;;;;;5062195;28;20029;-82
2024/02/14 03:57:25;;;;;;;13.90;5.97;;;9.60;99.90;;;;;;5063487;28;20492;-81
2024/02/14 03:59:52;;;;;;;17.48;7.07;;;9.60;99.90;;;;;;5062277;28;20017;-82
2024/02/14 04:02:18;;;;;;;16.20;6.85;;;;;;;;;;5062866;28;20078;-82
2024/02/14 04:04:46;;;;;;;14.45;6.55;;;9.60;99.90;;;;;;5061630;28;20025;-84
2024/02/14 04:07:12;;;;;;;15.10;6.70;;;;;;;;;;5062165;28;20021;-81
2024/02/14 04:09:39;;;;;;;13.55;5.75;;;;;;;;;;5061739;28;20067;-81
2024/02/14 04:12:05;;;;;;;11.82;5.50;;;9.70;99.90;;;;;;5061897;28;20476;-82
2024/02/14 04:14:31;;;;;;;15.18;5.20;;;;;;;;;;5062244;28;20050;-83
2024/02/14 04:16:58;;;;;;;15.90;6.18;;;9.70;99.90;;;;;;5063713;28;20472;-81
2024/02/14 04:19:24;;;;;;;15.20;5.78;;;;;;;;;;5063641;28;20021;-81
2024/02/14 04:21:50;;;;;;;16.50;6.50;;;9.70;99.90;;;;;;5062602;28;20473;-82
2024/02/14 04:24:16;;;;;;;17.17;6.38;;;9.70;99.90;;;;;;5060177;28;20037;-81
2024/02/14 04:26:41;;;;;;;16.55;6.00;;;9.80;99.90;;;;;;5061276;28;20028;-81
2024/02/14 04:29:08;;;;;;;13.27;6.20;;;10.10;99.90;;;;;;5063551;28;20120;-81
2024/02/14 04:31:34;;;;;;;16.70;6.32;;;9.70;99.90;;;;;;5061939;28;20507;-82
2024/02/14 04:34:00;;;;;;;15.73;5.75;;;9.80;99.90;;;;;;5062603;28;20078;-82
2024/02/14 04:36:26;;;;;;;15.60;6.65;;;9.80;99.90;;;;;;5063211;28;20021;-81
2024/02/14 04:38:55;;;;;;;14.68;6.20;;;9.70;99.90;;;;;;5061673;28;20545;-82
2024/02/14 04:41:21;;;;;;;17.02;7.20;;;9.70;99.90;;;;;;5060817;28;20021;-82
2024/02/14 04:43:47;;;;;;;19.10;7.13;;;9.80;99.90;;;;;;5061140;28;20013;-82
2024/02/14 04:46:13;;;;;;;16.65;6.53;;;9.80;99.90;;;;;;5061305;28;20040;-81
2024/02/14 04:48:39;;;;;;;16.27;6.13;;;9.80;99.90;;;;;;5061084;28;20056;-82
2024/02/14 04:51:05;;;;;;;10.40;5.03;;;9.80;99.90;;;;;;5062922;28;20514;-82
2024/02/14 04:53:34;;;;;;;15.95;6.10;;;9.80;99.90;;;;;;5060738;28;20028;-82
2024/02/14 04:56:00;;;;;;;11.88;6.18;;;;;;;;;;5057253;28;20032;-77
2024/02/14 04:58:26;;;;;;;16.20;6.50;;;9.80;99.90;;;;;;5053964;28;20385;-76
2024/02/14 05:00:54;;;;;;;13.30;5.55;;;;;;;;;;5055207;28;20020;-76
2024/02/14 05:03:21;;;;;;;12.30;6.67;;;9.90;99.90;;;;;;5055950;28;20048;-76
2024/02/14 05:05:46;;;;;;;14.88;6.78;;;9.80;99.90;;;;;;5055085;28;20083;-77
2024/02/14 05:08:12;;;;;;;14.93;6.38;;;9.80;99.90;;;;;;5054617;28;20476;-77
2024/02/14 05:10:38;;;;;;;15.15;6.07;;;9.90;99.90;;;;;;5054531;28;20506;-77
2024/02/14 05:13:03;;;;;;;13.93;6.20;;;9.90;99.90;;;;;;5056167;28;20032;-77
2024/02/14 05:15:29;;;;;;;11.40;5.38;;;9.90;99.90;;;;;;5054442;28;20028;-77
2024/02/14 05:17:55;;;;;;;18.85;6.18;;;9.90;99.90;;;;;;5054210;28;20021;-77
2024/02/14 05:20:21;;;;;;;12.88;6.03;;;9.90;99.90;;;;;;5054162;28;20021;-77
2024/02/14 05:22:47;;;;;;;14.52;6.15;;;10.00;99.90;;;;;;5054445;28;20112;-77
2024/02/14 05:25:13;;;;;;;9.63;4.80;;;10.00;99.90;;;;;;5054643;28;20025;-77
2024/02/14 05:27:39;;;;;;;10.82;5.35;;;9.90;99.90;;;;;;5054273;28;20025;-77
2024/02/14 05:30:05;;;;;;;14.43;5.50;;;;;;;;;;5053552;28;20051;-77
2024/02/14 05:32:34;;;;;;;18.55;5.05;;;9.90;99.90;;;;;;5053701;28;20373;-77
2024/02/14 05:35:00;;;;;;;;;;;10.00;99.90;;;;;;5053598;28;20472;-77
2024/02/14 05:37:28;;;;;;;12.75;5.25;;;10.00;99.90;;;;;;5053406;28;19916;-77
2024/02/14 05:39:55;;;;;;;12.00;5.15;;;10.00;99.90;;;;;;5053571;28;20024;-78
2024/02/14 05:42:21;;;;;;;13.27;5.70;;;10.00;99.90;;;;;;5053249;28;20075;-77
2024/02/14 05:44:47;;;;;;;8.20;4.45;;;9.90;99.90;;;;;;5053392;28;20115;-77
2024/02/14 05:47:13;;;;;;;15.73;4.32;;;;;;;;;;5054716;28;20118;-78
2024/02/14 05:49:39;;;;;;;8.90;3.20;;;10.00;99.90;;;;;;5053232;28;20025;-77
2024/02/14 05:52:06;;;;;;;10.95;4.38;;;9.90;99.90;;;;;;5053976;28;20021;-77
2024/02/14 05:54:31;;;;;;;10.82;5.45;;;10.20;99.90;;;;;;5053602;28;20124;-77
2024/02/14 05:56:57;;;;;;;13.60;5.85;;;9.90;99.90;;;;;;5052743;28;20060;-78
2024/02/14 05:59:23;;;;;;;10.48;5.50;;;10.60;99.90;;;;;;5052886;28;20075;-77
2024/02/14 06:01:49;;;;;;;10.07;5.57;;;9.90;99.90;;;;;;5053299;28;20075;-78
2024/02/14 06:04:14;;;;;;;13.10;5.03;;;10.00;99.90;;;;;;5052709;28;20021;-78
2024/02/14 06:06:40;;;;;;;10.07;5.63;;;9.90;99.90;;;;;;5054327;28;20143;-78
2024/02/14 06:09:09;;;;;;;10.27;4.97;;;10.00;99.90;;;;;;5054063;28;20033;-78
2024/02/14 06:11:38;;;;;;;11.85;5.60;;;;;;;;;;5052405;28;20104;-77
2024/02/14 06:14:08;;;;;;;;;;;9.90;99.90;;;;;;5053782;28;20064;-77
2024/02/14 06:16:34;;;;;;;9.88;4.40;;;10.00;99.90;;;;;;5053246;28;19905;-77
2024/02/14 06:19:00;;;;;;;10.13;5.15;;;10.00;99.90;;;;;;5053195;28;20036;-77
2024/02/14 06:21:35;;;;;;;7.63;4.15;;;;;;;;;;5053401;28;20499;-77
2024/02/14 06:24:03;;;;;;;8.60;4.55;;;10.00;99.90;;;;;;5055372;28;20040;-77
2024/02/14 06:26:31;;;;;;;8.63;4.03;;;10.00;99.90;;;;;;5054632;28;20079;-77
2024/02/14 06:28:56;;;;;;;11.00;4.63;;;10.00;99.90;;;;;;5053725;28;20033;-77
2024/02/14 06:31:23;;;;;;;12.70;5.75;;;10.00;99.90;;;;;;5054091;28;20033;-78
2024/02/14 06:33:49;;;;;;;11.75;5.82;;;;;;;;;;5055188;28;20078;-77
2024/02/14 06:36:15;;;;;;;10.43;5.22;;;10.00;99.90;;;;;;5055077;28;20025;-77
2024/02/14 06:38:41;;;;;;;11.68;4.97;;;9.90;99.90;;;;;;5057208;28;20029;-77
2024/02/14 06:41:06;;;;;;;13.27;5.85;;;10.00;99.90;;;;;;5057217;28;20032;-77
2024/02/14 06:43:32;;;;;;;11.50;5.30;;;10.00;99.90;;;;;;5058242;28;20048;-77
2024/02/14 06:45:58;;;;;;;10.65;5.82;;;10.00;99.90;;;;;;5058269;28;20025;-77
2024/02/14 06:48:24;;;;;;;13.43;6.75;;;10.00;99.90;;;;;;5056490;28;20021;-77
2024/02/14 06:50:53;;;;;;;15.35;7.20;;;10.00;99.90;;;;;;5056835;28;20472;-77
2024/02/14 06:53:19;;;;;;;12.55;6.90;;;10.00;99.90;;;;;;5057206;28;20025;-77
2024/02/14 06:55:44;;;;;;;20.92;7.53;;;10.00;99.90;;;;;;5057088;28;20025;-77
2024/02/14 06:58:10;;;;;;;16.27;7.07;;;10.00;99.90;;;;;;5057404;28;20037;-77
2024/02/14 07:00:36;;;;;;;22.30;7.68;;;9.90;99.90;;;;;;5056626;28;20029;-77
2024/02/14 07:03:02;;;;;;;19.85;7.68;;;;;;;;;;5057075;28;20112;-77
2024/02/14 07:05:28;;;;;;;18.05;8.65;;;10.00;99.90;;;;;;5057273;28;20151;-77
2024/02/14 07:07:55;;;;;;;14.63;7.97;;;10.00;99.90;;;;;;5058233;28;20028;-77
2024/02/14 07:10:20;;;;;;;18.67;8.27;;;10.00;99.90;;;;;;5057000;28;20080;-77
2024/02/14 07:12:46;;;;;;;18.38;7.60;;;10.00;99.90;;;;;;5056668;28;20029;-77
2024/02/14 07:15:11;;;;;;;23.63;8.30;;;10.10;99.90;;;;;;5057763;28;20392;-77
2024/02/14 07:17:40;;;;;;;21.13;9.07;;;10.00;99.90;;;;;;5056596;28;20032;-77
2024/02/14 07:20:08;;;;;;;19.17;7.45;;;10.10;99.90;;;;;;5057539;28;20124;-77
2024/02/14 07:22:37;;;;;;;15.77;8.35;;;10.10;99.90;;;;;;5057099;28;20021;-77
2024/02/14 07:25:04;;;;;;;19.02;8.82;;;10.10;99.90;;;;;;5057720;28;20510;-77
2024/02/14 07:27:30;;;;;;;18.20;7.97;;;10.10;99.90;;;;;;5056722;28;20029;-77
2024/02/14 07:29:56;;;;;;;23.08;8.98;;;10.10;99.90;;;;;;5056023;28;20035;-78
2024/02/14 07:32:22;;;;;;;17.63;8.60;;;10.10;99.90;;;;;;5055691;28;20517;-77
2024/02/14 07:34:48;;;;;;;18.65;8.40;;;;;;;;;;5055878;28;20036;-77
2024/02/14 07:37:15;;;;;;;14.98;8.48;;;10.10;99.90;;;;;;5056928;28;20021;-78
2024/02/14 07:39:41;;;;;;;22.70;9.57;;;;;;;;;;5055619;28;20483;-77
2024/02/14 07:42:07;;;;;;;20.33;9.15;;;10.10;99.90;;;;;;5055883;28;20431;-77
2024/02/14 07:44:33;;;;;;;20.35;8.52;;;10.10;99.90;;;;;;5055735;28;20086;-77
2024/02/14 07:46:58;;;;;;;17.35;8.43;;;10.20;99.90;;;;;;5055902;28;20112;-77
2024/02/14 07:49:24;;;;;;;15.80;7.72;;;10.20;99.90;;;;;;5056545;28;20059;-77
2024/02/14 07:51:50;;;;;;;14.90;7.75;;;10.20;99.90;;;;;;5056846;28;20090;-78
2024/02/14 07:54:15;;;;;;;17.80;7.30;;;10.30;99.90;;;;;;5056127;28;20029;-77
2024/02/14 07:56:41;;;;;;;19.58;7.90;;;10.30;99.90;;;;;;5056305;28;20052;-77
2024/02/14 07:59:06;;;;;;;13.13;6.15;;;10.30;99.90;;;;;;5055374;28;20021;-77
2024/02/14 08:01:32;;;;;;;14.07;6.90;;;10.30;99.90;;;;;;5055855;28;20451;-77
2024/02/14 08:03:58;;;;;;;14.00;6.78;;;10.30;99.90;;;;;;5055572;28;20029;-77
2024/02/14 08:06:24;;;;;;;15.52;7.80;;;10.30;99.90;;;;;;5055756;28;20032;-77
2024/02/14 08:08:53;;;;;;;11.82;6.45;;;10.30;99.90;;;;;;5055617;28;20029;-77
2024/02/14 08:11:20;;;;;;;15.32;7.45;;;10.30;99.90;;;;;;5055396;28;20017;-77
2024/02/14 08:13:46;;;;;;;12.32;6.60;;;10.40;99.90;;;;;;5055038;28;20499;-77
2024/02/14 08:16:12;;;;;;;16.65;7.60;;;10.40;99.90;;;;;;5055649;28;20013;-78
2024/02/14 08:18:39;;;;;;;15.20;6.38;;;10.40;99.90;;;;;;5055870;28;20021;-77
2024/02/14 08:21:06;;;;;;;12.07;6.95;;;10.40;99.90;;;;;;5057427;28;20021;-77
2024/02/14 08:23:32;;;;;;;13.52;6.80;;;10.40;99.90;;;;;;5055721;28;20043;-77
2024/02/14 08:25:58;;;;;;;19.33;6.93;;;10.40;99.90;;;;;;5058328;28;20017;-77
2024/02/14 08:28:23;;;;;;;16.95;7.22;;;10.40;99.90;;;;;;5055594;28;20025;-77
2024/02/14 08:30:49;;;;;;;15.15;6.90;;;10.40;99.90;;;;;;5056667;28;20096;-76
2024/02/14 08:33:15;;;;;;;14.50;7.13;;;10.40;99.90;;;;;;5055794;28;20420;-77
2024/02/14 08:35:40;;;;;;;17.02;6.82;;;10.40;99.90;;;;;;5054347;28;20025;-77
2024/02/14 08:38:06;;;;;;;17.45;6.25;;;10.50;99.90;;;;;;5055332;28;20488;-75
2024/02/14 08:40:32;;;;;;;10.98;6.20;;;10.50;99.90;;;;;;5054383;28;20017;-75
2024/02/14 08:42:59;;;;;;;10.10;5.40;;;10.40;99.90;;;;;;5055229;28;20017;-79
2024/02/14 08:45:25;;;;;;;10.32;4.78;;;10.60;99.90;;;;;;5054612;28;20029;-77
2024/02/14 08:47:51;;;;;;;11.20;4.15;;;10.60;99.90;;;;;;5056276;28;20501;-77
2024/02/14 08:50:17;;;;;;;10.85;6.07;;;10.60;99.90;;;;;;5054974;28;20082;-77
2024/02/14 08:52:42;;;;;;;10.55;5.47;;;10.60;99.90;;;;;;5054802;28;20021;-75
2024/02/14 08:55:14;;;;;;;9.80;4.38;;;10.60;99.90;;;;;;5056569;28;20017;-75
2024/02/14 08:57:40;;;;;;;8.65;5.47;;;10.60;99.90;;;;;;5054604;28;20028;-77
2024/02/14 09:00:07;;;;;;;10.63;5.60;;;10.60;99.90;;;;;;5056121;28;20025;-77
2024/02/14 09:02:34;;;;;;;10.10;5.78;;;10.60;99.90;;;;;;5055298;28;20507;-77
2024/02/14 09:05:01;;;;;;;14.32;6.07;;;10.70;99.90;;;;;;5055271;28;20024;-77
2024/02/14 09:07:27;;;;;;;15.75;8.15;;;10.70;99.90;;;;;;5055279;28;20021;-77
2024/02/14 09:09:52;;;;;;;11.88;5.68;;;10.70;99.90;;;;;;5054081;28;20078;-77
2024/02/14 09:12:18;;;;;;;10.43;5.38;;;10.70;99.90;;;;;;5054650;28;20021;-77
2024/02/14 09:14:43;;;;;;;12.13;6.50;;;10.70;99.90;;;;;;5054334;28;20377;-77
2024/02/14 09:17:10;;;;;;;10.75;5.85;;;10.60;99.90;;;;;;5053573;28;20029;-76
2024/02/14 09:19:36;;;;;;;9.75;5.75;;;10.60;99.90;;;;;;5054348;28;20017;-76
2024/02/14 09:22:06;;;;;;;11.02;5.28;;;10.60;99.90;;;;;;5053856;28;20023;-76
2024/02/14 09:24:32;;;;;;;11.98;5.82;;;10.60;99.90;;;;;;5055074;28;20559;-77
2024/02/14 09:26:57;;;;;;;9.75;5.20;;;10.70;99.90;;;;;;5054548;28;20124;-77
2024/02/14 09:29:23;;;;;;;10.68;4.97;;;10.60;99.90;;;;;;5055704;28;20060;-77
2024/02/14 09:31:51;;;;;;;9.43;5.72;;;10.70;99.90;;;;;;5055116;28;20021;-77
2024/02/14 09:34:19;;;;;;;10.57;6.03;;;10.70;99.90;;;;;;5053809;28;20112;-76
2024/02/14 09:36:45;;;;;;;11.80;6.27;;;10.70;99.90;;;;;;5053040;28;20423;-77
2024/02/14 09:39:10;;;;;;;10.23;6.13;;;10.70;99.90;;;;;;5053166;28;20090;-77
2024/02/14 09:41:36;;;;;;;16.25;6.97;;;10.70;99.90;;;;;;5054932;28;20025;-77
2024/02/14 09:44:03;;;;;;;14.05;7.50;;;10.70;99.90;;;;;;5055404;28;20100;-77
2024/02/14 09:46:30;;;;;;;12.00;6.20;;;10.70;99.90;;;;;;5054755;28;20400;-78
2024/02/14 09:48:59;;;;;;;15.70;7.10;;;10.70;99.90;;;;;;5052917;28;20035;-77
2024/02/14 09:51:25;;;;;;;18.55;7.90;;;10.70;99.90;;;;;;5054952;28;20108;-77
2024/02/14 09:53:53;;;;;;;17.63;7.78;;;11.10;99.90;;;;;;5053888;28;20073;-77
2024/02/14 09:56:22;;;;;;;12.75;7.78;;;10.80;99.90;;;;;;5053001;28;20033;-77
2024/02/14 09:58:56;;;;;;;19.67;8.50;;;10.80;99.90;;;;;;5054971;28;20014;-77
2024/02/14 10:01:26;;;;;;;17.73;8.48;;;10.80;99.90;;;;;;5053743;28;20036;-77
2024/02/14 10:03:53;;;;;;;19.70;8.07;;;10.80;99.90;;;;;;5053152;28;20018;-77
2024/02/14 10:06:22;;;;;;;13.55;7.25;;;;;;;;;;5053402;28;20033;-77
2024/02/14 10:08:51;;;;;;;12.88;6.88;;;10.90;99.90;;;;;;5054026;28;20021;-77
2024/02/14 10:11:17;;;;;;;;;;;10.90;99.90;;;;;;5054027;28;20024;-77
2024/02/14 10:13:47;;;;;;;13.88;6.45;;;11.00;99.90;;;;;;5053280;28;19904;-78
2024/02/14 10:16:14;;;;;;;11.57;6.07;;;11.00;99.90;;;;;;5055747;28;20091;-79
2024/02/14 10:18:40;;;;;;;13.85;6.05;;;11.00;99.90;;;;;;5057118;28;20492;-78
2024/02/14 10:21:05;;;;;;;11.05;5.65;;;10.90;99.90;;;;;;5057098;28;20014;-78
2024/02/14 10:23:32;;;;;;;13.57;6.28;;;11.00;99.90;;;;;;5056777;28;20029;-79
2024/02/14 10:25:58;;;;;;;11.70;5.63;;;;;;;;;;5056728;28;20032;-78
2024/02/14 10:28:24;;;;;;;13.00;6.70;;;11.10;99.90;;;;;;5056060;28;20087;-78
2024/02/14 10:30:50;;;;;;;10.93;5.82;;;11.10;99.90;;;;;;5054692;28;20498;-78
2024/02/14 10:33:16;;;;;;;9.52;5.07;;;11.10;99.90;;;;;;5053239;28;20422;-79
2024/02/14 10:35:42;;;;;;;10.50;5.47;;;11.30;99.90;;;;;;5053668;28;20021;-79
2024/02/14 10:38:09;;;;;;;9.05;5.82;;;11.30;99.90;;;;;;5052185;28;20025;-78
2024/02/14 10:40:40;;;;;;;8.55;4.93;;;11.40;99.90;;;;;;5053318;28;20022;-78
2024/02/14 10:43:09;;;;;;;12.52;5.85;;;11.50;99.90;;;;;;5053326;28;20029;-78
2024/02/14 10:45:38;;;;;;;8.35;4.75;;;11.40;99.90;;;;;;5054445;28;20036;-78
2024/02/14 10:48:13;;;;;;;10.13;4.53;;;11.50;99.90;;;;;;5052458;28;20560;-78
2024/02/14 10:50:43;;;;;;;10.23;4.63;;;11.50;99.90;;;;;;5053129;28;20116;-79
2024/02/14 10:53:14;;;;;;;7.50;4.65;;;11.50;99.90;;;;;;5052940;28;20029;-78
2024/02/14 10:55:42;;;;;;;8.73;5.00;;;11.50;99.90;;;;;;5055566;28;20515;-79
2024/02/14 10:58:10;;;;;;;7.37;3.90;;;11.50;99.90;;;;;;5055244;28;20024;-79
2024/02/14 11:00:36;;;;;;;7.93;4.78;;;11.50;99.90;;;;;;5055321;28;20120;-79
2024/02/14 11:03:02;;;;;;;7.65;3.92;;;11.50;99.90;;;;;;5055543;28;20503;-79
2024/02/14 11:05:27;;;;;;;6.00;4.13;;;11.50;99.90;;;;;;5056027;28;20040;-79
2024/02/14 11:07:53;;;;;;;8.65;4.57;;;11.50;99.90;;;;;;5055226;28;20021;-80
2024/02/14 11:10:21;;;;;;;7.43;3.85;;;11.50;99.90;;;;;;5054481;28;20399;-79
2024/02/14 11:12:50;;;;;;;7.65;4.70;;;11.50;99.90;;;;;;5055718;28;20028;-79
2024/02/14 11:15:24;;;;;;;7.90;3.80;;;11.50;99.90;;;;;;5055426;28;20021;-79
2024/02/14 11:17:51;;;;;;;8.00;4.57;;;11.50;99.90;;;;;;5055906;28;20017;-79
2024/02/14 11:20:18;;;;;;;5.53;3.58;;;11.50;99.90;;;;;;5055889;28;20029;-79
2024/02/14 11:22:59;;;;;;;8.05;3.63;;;11.50;99.90;;;;;;5056020;28;20024;-80
2024/02/14 11:25:35;;;;;;;7.18;3.50;;;11.60;99.90;;;;;;5058598;28;20035;-80
2024/02/14 11:28:25;;;;;;;5.82;3.45;;;11.60;99.90;;;;;;5058950;28;20031;-79
2024/02/14 11:30:51;;;;;;;10.23;3.42;;;11.60;99.90;;;;;;5058780;28;20040;-79
2024/02/14 11:33:24;;;;;;;7.43;3.65;;;11.60;99.90;;;;;;5059122;28;20029;-79
2024/02/14 11:35:55;;;;;;;9.35;2.95;;;11.60;99.90;;;;;;5060459;28;20506;-79
2024/02/14 11:38:23;;;;;;;9.43;2.92;;;11.60;99.90;;;;;;5059132;28;20064;-79
2024/02/14 11:40:49;;;;;;;7.00;3.30;;;11.60;99.90;;;;;;5058732;28;20021;-80
2024/02/14 11:43:17;;;;;;;9.02;3.80;;;12.70;99.90;;;;;;5058502;28;20025;-79
2024/02/14 11:45:45;;;;;;;6.43;2.67;;;11.50;99.90;;;;;;5059944;28;20025;-79
2024/02/14 11:48:14;;;;;;;9.30;3.55;;;11.60;99.90;;;;;;5058288;28;20029;-79
2024/02/14 11:50:44;;;;;;;9.20;4.20;;;11.60;99.90;;;;;;5059117;28;20111;-79
2024/02/14 11:53:16;;;;;;;6.68;3.70;;;11.60;99.90;;;;;;5059125;28;20028;-79
2024/02/14 11:55:42;;;;;;;6.90;3.70;;;11.70;99.90;;;;;;5058759;28;20051;-79
2024/02/14 11:58:13;;;;;;;6.72;3.25;;;11.70;99.90;;;;;;5058095;28;20535;-79
2024/02/14 12:00:45;;;;;;;7.30;3.20;;;11.70;99.90;;;;;;5058154;28;20111;-79
2024/02/14 12:03:32;;;;;;;8.65;4.30;;;11.70;99.90;;;;;;5058393;28;20021;-80
2024/02/14 12:05:58;;;;;;;7.53;4.57;;;11.80;99.90;;;;;;5059282;28;20037;-79
2024/02/14 12:08:23;;;;;;;7.60;4.25;;;11.80;99.90;;;;;;5059005;28;20079;-79
2024/02/14 12:10:50;;;;;;;10.30;3.90;;;11.80;99.90;;;;;;5058716;28;20021;-80
2024/02/14 12:13:20;;;;;;;7.57;4.13;;;11.80;99.90;;;;;;5057451;28;20104;-80
2024/02/14 12:15:51;;;;;;;6.70;3.53;;;11.70;99.90;;;;;;5056962;28;20115;-79
2024/02/14 12:18:18;;;;;;;7.38;4.05;;;11.80;99.90;;;;;;5058856;28;20109;-79
2024/02/14 12:20:45;;;;;;;4.70;2.92;;;11.90;99.90;;;;;;5059714;28;20025;-79
2024/02/14 12:23:18;;;;;;;9.18;3.83;;;11.80;99.90;;;;;;5057061;28;20488;-79
2024/02/14 12:25:46;;;;;;;7.97;3.35;;;11.70;99.90;;;;;;5056162;28;20025;-79
2024/02/14 12:28:19;;;;;;;5.95;3.78;;;11.70;99.90;;;;;;5056867;28;20021;-79
2024/02/14 12:30:46;;;;;;;5.40;3.22;;;11.70;99.90;;;;;;5056107;28;20029;-79
2024/02/14 12:33:13;;;;;;;8.00;3.30;;;11.70;99.90;;;;;;5056840;28;20044;-79
2024/02/14 12:35:48;;;;;;;6.65;3.22;;;11.70;99.90;;;;;;5056099;28;20391;-80
2024/02/14 12:38:16;;;;;;;7.20;3.30;;;11.70;99.90;;;;;;5056711;28;20037;-79
2024/02/14 12:40:43;;;;;;;6.10;3.42;;;11.70;99.90;;;;;;5056452;28;20013;-79
2024/02/14 12:43:10;;;;;;;12.43;3.25;;;11.70;99.90;;;;;;5055595;28;20029;-79
2024/02/14 12:45:40;;;;;;;6.10;3.03;;;11.70;99.90;;;;;;5055684;28;20036;-79
2024/02/14 12:48:10;;;;;;;4.82;3.15;;;11.60;99.90;;;;;;5060370;28;20035;-82
2024/02/14 12:50:39;;;;;;;6.97;3.40;;;11.60;99.90;;;;;;5063557;28;20028;-83